sensor_id;sensor_type;location;lat;lon;timestamp;P1;durP1;ratioP1;P2;durP2;ratioP2
61903;SDS011;47857;52.270;6.804;2023-03-09T00:00:50;32.92;;;20.98;;
61903;SDS011;47857;52.270;6.804;2023-03-09T00:03:15;30.42;;;20.35;;
61903;SDS011;47857;52.270;6.804;2023-03-09T00:05:51;34.38;;;22.13;;
61903;SDS011;47857;52.270;6.804;2023-03-09T00:08:21;31.30;;;21.00;;
61903;SDS011;47857;52.270;6.804;2023-03-09T00:10:47;29.33;;;20.27;;
61903;SDS011;47857;52.270;6.804;2023-03-09T00:13:17;31.20;;;20.73;;
61903;SDS011;47857;52.270;6.804;2023-03-09T00:15:43;29.55;;;20.15;;
61903;SDS011;47857;52.270;6.804;2023-03-09T00:18:15;31.80;;;21.20;;
61903;SDS011;47857;52.270;6.804;2023-03-09T00:20:43;34.17;;;22.33;;
61903;SDS011;47857;52.270;6.804;2023-03-09T00:23:09;33.42;;;21.85;;
61903;SDS011;47857;52.270;6.804;2023-03-09T00:25:35;32.95;;;21.45;;
61903;SDS011;47857;52.270;6.804;2023-03-09T00:28:01;36.38;;;22.90;;
61903;SDS011;47857;52.270;6.804;2023-03-09T00:30:27;37.35;;;22.80;;
61903;SDS011;47857;52.270;6.804;2023-03-09T00:32:52;39.85;;;24.75;;
61903;SDS011;47857;52.270;6.804;2023-03-09T00:35:18;41.00;;;25.27;;
61903;SDS011;47857;52.270;6.804;2023-03-09T00:37:44;44.88;;;26.17;;
61903;SDS011;47857;52.270;6.804;2023-03-09T00:40:12;41.80;;;26.00;;
61903;SDS011;47857;52.270;6.804;2023-03-09T00:42:42;43.65;;;26.38;;
61903;SDS011;47857;52.270;6.804;2023-03-09T00:45:09;45.13;;;26.88;;
61903;SDS011;47857;52.270;6.804;2023-03-09T00:47:35;47.33;;;28.10;;
61903;SDS011;47857;52.270;6.804;2023-03-09T00:50:01;49.25;;;27.88;;
61903;SDS011;47857;52.270;6.804;2023-03-09T00:52:27;48.95;;;28.30;;
61903;SDS011;47857;52.270;6.804;2023-03-09T00:54:54;51.03;;;28.67;;
61903;SDS011;47857;52.270;6.804;2023-03-09T00:57:20;49.38;;;28.75;;
61903;SDS011;47857;52.270;6.804;2023-03-09T00:59:46;50.90;;;29.23;;
61903;SDS011;47857;52.270;6.804;2023-03-09T01:02:12;50.15;;;28.80;;
61903;SDS011;47857;52.270;6.804;2023-03-09T01:04:38;49.92;;;27.70;;
61903;SDS011;47857;52.270;6.804;2023-03-09T01:07:03;46.70;;;27.50;;
61903;SDS011;47857;52.270;6.804;2023-03-09T01:09:29;49.80;;;27.73;;
61903;SDS011;47857;52.270;6.804;2023-03-09T01:11:54;43.88;;;25.90;;
61903;SDS011;47857;52.270;6.804;2023-03-09T01:14:20;40.38;;;25.15;;
61903;SDS011;47857;52.270;6.804;2023-03-09T01:16:46;41.88;;;24.60;;
61903;SDS011;47857;52.270;6.804;2023-03-09T01:19:11;42.53;;;24.08;;
61903;SDS011;47857;52.270;6.804;2023-03-09T01:21:37;38.78;;;23.38;;
61903;SDS011;47857;52.270;6.804;2023-03-09T01:24:02;38.55;;;23.73;;
61903;SDS011;47857;52.270;6.804;2023-03-09T01:26:28;37.92;;;23.30;;
61903;SDS011;47857;52.270;6.804;2023-03-09T01:28:53;35.97;;;22.30;;
61903;SDS011;47857;52.270;6.804;2023-03-09T01:31:19;34.70;;;21.73;;
61903;SDS011;47857;52.270;6.804;2023-03-09T01:33:44;37.60;;;22.40;;
61903;SDS011;47857;52.270;6.804;2023-03-09T01:36:13;34.10;;;21.77;;
61903;SDS011;47857;52.270;6.804;2023-03-09T01:38:40;35.15;;;20.98;;
61903;SDS011;47857;52.270;6.804;2023-03-09T01:41:06;35.13;;;22.25;;
61903;SDS011;47857;52.270;6.804;2023-03-09T01:43:33;35.90;;;21.73;;
61903;SDS011;47857;52.270;6.804;2023-03-09T01:46:26;33.83;;;21.35;;
61903;SDS011;47857;52.270;6.804;2023-03-09T01:51:36;33.33;;;21.02;;
61903;SDS011;47857;52.270;6.804;2023-03-09T01:54:07;34.20;;;20.70;;
61903;SDS011;47857;52.270;6.804;2023-03-09T01:56:35;33.92;;;21.27;;
61903;SDS011;47857;52.270;6.804;2023-03-09T01:59:01;36.78;;;22.25;;
61903;SDS011;47857;52.270;6.804;2023-03-09T02:01:27;36.55;;;22.52;;
61903;SDS011;47857;52.270;6.804;2023-03-09T02:04:02;37.63;;;23.67;;
61903;SDS011;47857;52.270;6.804;2023-03-09T02:06:31;34.75;;;22.20;;
61903;SDS011;47857;52.270;6.804;2023-03-09T02:09:19;38.90;;;23.50;;
61903;SDS011;47857;52.270;6.804;2023-03-09T02:11:52;39.67;;;22.83;;
61903;SDS011;47857;52.270;6.804;2023-03-09T02:14:19;36.67;;;22.40;;
61903;SDS011;47857;52.270;6.804;2023-03-09T02:16:45;35.40;;;21.77;;
61903;SDS011;47857;52.270;6.804;2023-03-09T02:19:19;35.17;;;21.85;;
61903;SDS011;47857;52.270;6.804;2023-03-09T02:21:51;35.58;;;22.98;;
61903;SDS011;47857;52.270;6.804;2023-03-09T02:24:19;38.25;;;23.50;;
61903;SDS011;47857;52.270;6.804;2023-03-09T02:26:52;36.95;;;22.85;;
61903;SDS011;47857;52.270;6.804;2023-03-09T02:29:20;36.05;;;23.13;;
61903;SDS011;47857;52.270;6.804;2023-03-09T02:31:47;35.80;;;22.63;;
61903;SDS011;47857;52.270;6.804;2023-03-09T02:34:12;37.55;;;23.92;;
61903;SDS011;47857;52.270;6.804;2023-03-09T02:36:40;35.33;;;23.48;;
61903;SDS011;47857;52.270;6.804;2023-03-09T02:39:52;36.38;;;23.08;;
61903;SDS011;47857;52.270;6.804;2023-03-09T02:42:08;35.50;;;22.30;;
61903;SDS011;47857;52.270;6.804;2023-03-09T02:44:33;38.67;;;23.83;;
61903;SDS011;47857;52.270;6.804;2023-03-09T02:47:00;37.50;;;23.50;;
61903;SDS011;47857;52.270;6.804;2023-03-09T02:49:27;33.20;;;22.73;;
61903;SDS011;47857;52.270;6.804;2023-03-09T02:51:56;37.58;;;23.13;;
61903;SDS011;47857;52.270;6.804;2023-03-09T02:54:22;36.10;;;23.10;;
61903;SDS011;47857;52.270;6.804;2023-03-09T02:56:48;36.28;;;23.00;;
61903;SDS011;47857;52.270;6.804;2023-03-09T02:59:13;36.40;;;23.88;;
61903;SDS011;47857;52.270;6.804;2023-03-09T03:01:39;36.80;;;23.63;;
61903;SDS011;47857;52.270;6.804;2023-03-09T03:04:04;37.67;;;24.38;;
61903;SDS011;47857;52.270;6.804;2023-03-09T03:06:32;34.97;;;23.88;;
61903;SDS011;47857;52.270;6.804;2023-03-09T03:08:57;37.70;;;23.40;;
61903;SDS011;47857;52.270;6.804;2023-03-09T03:11:23;35.25;;;23.67;;
61903;SDS011;47857;52.270;6.804;2023-03-09T03:13:49;40.47;;;24.40;;
61903;SDS011;47857;52.270;6.804;2023-03-09T03:16:14;35.72;;;23.85;;
61903;SDS011;47857;52.270;6.804;2023-03-09T03:18:40;38.53;;;24.70;;
61903;SDS011;47857;52.270;6.804;2023-03-09T03:21:06;39.00;;;24.65;;
61903;SDS011;47857;52.270;6.804;2023-03-09T03:23:37;35.40;;;23.30;;
61903;SDS011;47857;52.270;6.804;2023-03-09T03:26:06;36.30;;;23.23;;
61903;SDS011;47857;52.270;6.804;2023-03-09T03:28:34;36.33;;;24.00;;
61903;SDS011;47857;52.270;6.804;2023-03-09T03:31:04;35.15;;;23.35;;
61903;SDS011;47857;52.270;6.804;2023-03-09T03:33:29;35.67;;;23.02;;
61903;SDS011;47857;52.270;6.804;2023-03-09T03:35:56;35.08;;;22.83;;
61903;SDS011;47857;52.270;6.804;2023-03-09T03:38:22;36.70;;;23.98;;
61903;SDS011;47857;52.270;6.804;2023-03-09T03:40:49;36.78;;;23.65;;
61903;SDS011;47857;52.270;6.804;2023-03-09T03:43:14;38.65;;;23.10;;
61903;SDS011;47857;52.270;6.804;2023-03-09T03:45:44;36.63;;;23.58;;
61903;SDS011;47857;52.270;6.804;2023-03-09T03:48:10;35.72;;;22.67;;
61903;SDS011;47857;52.270;6.804;2023-03-09T03:50:35;40.35;;;24.40;;
61903;SDS011;47857;52.270;6.804;2023-03-09T03:53:02;39.88;;;23.67;;
61903;SDS011;47857;52.270;6.804;2023-03-09T03:55:29;37.83;;;23.05;;
61903;SDS011;47857;52.270;6.804;2023-03-09T03:57:55;40.72;;;24.10;;
61903;SDS011;47857;52.270;6.804;2023-03-09T04:00:20;41.72;;;24.05;;
61903;SDS011;47857;52.270;6.804;2023-03-09T04:02:50;36.97;;;23.23;;
61903;SDS011;47857;52.270;6.804;2023-03-09T04:05:21;38.38;;;23.38;;
61903;SDS011;47857;52.270;6.804;2023-03-09T04:07:47;37.17;;;23.25;;
61903;SDS011;47857;52.270;6.804;2023-03-09T04:10:13;38.00;;;23.33;;
61903;SDS011;47857;52.270;6.804;2023-03-09T04:12:42;35.55;;;22.33;;
61903;SDS011;47857;52.270;6.804;2023-03-09T04:15:09;38.53;;;23.52;;
61903;SDS011;47857;52.270;6.804;2023-03-09T04:17:35;35.80;;;22.38;;
61903;SDS011;47857;52.270;6.804;2023-03-09T04:20:02;37.10;;;23.10;;
61903;SDS011;47857;52.270;6.804;2023-03-09T04:22:29;35.80;;;22.27;;
61903;SDS011;47857;52.270;6.804;2023-03-09T04:24:55;36.85;;;23.23;;
61903;SDS011;47857;52.270;6.804;2023-03-09T04:27:20;38.03;;;23.10;;
61903;SDS011;47857;52.270;6.804;2023-03-09T04:29:54;36.53;;;22.55;;
61903;SDS011;47857;52.270;6.804;2023-03-09T04:32:23;36.90;;;22.92;;
61903;SDS011;47857;52.270;6.804;2023-03-09T04:34:54;35.70;;;22.35;;
61903;SDS011;47857;52.270;6.804;2023-03-09T04:37:20;34.35;;;22.00;;
61903;SDS011;47857;52.270;6.804;2023-03-09T04:39:50;32.05;;;20.60;;
61903;SDS011;47857;52.270;6.804;2023-03-09T04:42:16;37.38;;;23.33;;
61903;SDS011;47857;52.270;6.804;2023-03-09T04:44:43;34.90;;;22.30;;
61903;SDS011;47857;52.270;6.804;2023-03-09T04:47:12;33.95;;;22.30;;
61903;SDS011;47857;52.270;6.804;2023-03-09T04:49:40;33.83;;;21.77;;
61903;SDS011;47857;52.270;6.804;2023-03-09T04:52:07;36.05;;;22.33;;
61903;SDS011;47857;52.270;6.804;2023-03-09T04:54:33;36.05;;;21.55;;
61903;SDS011;47857;52.270;6.804;2023-03-09T04:56:59;36.08;;;22.83;;
61903;SDS011;47857;52.270;6.804;2023-03-09T04:59:25;35.33;;;22.58;;
61903;SDS011;47857;52.270;6.804;2023-03-09T05:01:52;34.40;;;22.35;;
61903;SDS011;47857;52.270;6.804;2023-03-09T05:04:22;33.45;;;21.45;;
61903;SDS011;47857;52.270;6.804;2023-03-09T05:06:52;33.38;;;21.80;;
61903;SDS011;47857;52.270;6.804;2023-03-09T05:09:18;33.70;;;21.58;;
61903;SDS011;47857;52.270;6.804;2023-03-09T05:11:45;33.50;;;21.83;;
61903;SDS011;47857;52.270;6.804;2023-03-09T05:14:12;34.45;;;22.00;;
61903;SDS011;47857;52.270;6.804;2023-03-09T05:16:39;34.70;;;22.08;;
61903;SDS011;47857;52.270;6.804;2023-03-09T05:19:08;34.50;;;22.55;;
61903;SDS011;47857;52.270;6.804;2023-03-09T05:21:37;33.33;;;21.27;;
61903;SDS011;47857;52.270;6.804;2023-03-09T05:24:06;33.38;;;22.10;;
61903;SDS011;47857;52.270;6.804;2023-03-09T05:26:32;33.60;;;22.27;;
61903;SDS011;47857;52.270;6.804;2023-03-09T05:28:58;32.20;;;21.20;;
61903;SDS011;47857;52.270;6.804;2023-03-09T05:31:23;33.33;;;21.77;;
61903;SDS011;47857;52.270;6.804;2023-03-09T05:33:49;29.80;;;20.83;;
61903;SDS011;47857;52.270;6.804;2023-03-09T05:36:21;32.60;;;21.38;;
61903;SDS011;47857;52.270;6.804;2023-03-09T05:38:50;31.77;;;21.63;;
61903;SDS011;47857;52.270;6.804;2023-03-09T05:41:16;30.90;;;20.60;;
61903;SDS011;47857;52.270;6.804;2023-03-09T05:43:44;33.13;;;22.00;;
61903;SDS011;47857;52.270;6.804;2023-03-09T05:46:11;34.08;;;21.05;;
61903;SDS011;47857;52.270;6.804;2023-03-09T05:48:38;30.85;;;20.58;;
61903;SDS011;47857;52.270;6.804;2023-03-09T05:51:05;32.10;;;21.05;;
61903;SDS011;47857;52.270;6.804;2023-03-09T05:53:31;29.88;;;20.33;;
61903;SDS011;47857;52.270;6.804;2023-03-09T05:55:59;31.40;;;21.20;;
61903;SDS011;47857;52.270;6.804;2023-03-09T05:58:25;29.73;;;20.15;;
61903;SDS011;47857;52.270;6.804;2023-03-09T06:00:52;30.17;;;20.02;;
61903;SDS011;47857;52.270;6.804;2023-03-09T06:03:18;31.02;;;20.45;;
61903;SDS011;47857;52.270;6.804;2023-03-09T06:06:00;31.67;;;20.45;;
61903;SDS011;47857;52.270;6.804;2023-03-09T06:08:27;29.98;;;19.85;;
61903;SDS011;47857;52.270;6.804;2023-03-09T06:10:58;29.25;;;19.30;;
61903;SDS011;47857;52.270;6.804;2023-03-09T06:13:26;30.42;;;20.45;;
61903;SDS011;47857;52.270;6.804;2023-03-09T06:15:53;28.33;;;18.88;;
61903;SDS011;47857;52.270;6.804;2023-03-09T06:18:19;29.10;;;19.48;;
61903;SDS011;47857;52.270;6.804;2023-03-09T06:20:46;28.70;;;19.45;;
61903;SDS011;47857;52.270;6.804;2023-03-09T06:23:12;27.92;;;18.27;;
61903;SDS011;47857;52.270;6.804;2023-03-09T06:25:38;28.38;;;19.58;;
61903;SDS011;47857;52.270;6.804;2023-03-09T06:28:05;28.23;;;19.17;;
61903;SDS011;47857;52.270;6.804;2023-03-09T06:30:33;28.08;;;19.20;;
61903;SDS011;47857;52.270;6.804;2023-03-09T06:33:01;29.30;;;19.38;;
61903;SDS011;47857;52.270;6.804;2023-03-09T06:35:29;27.63;;;18.92;;
61903;SDS011;47857;52.270;6.804;2023-03-09T06:37:55;28.85;;;19.38;;
61903;SDS011;47857;52.270;6.804;2023-03-09T06:40:21;28.48;;;19.23;;
61903;SDS011;47857;52.270;6.804;2023-03-09T06:42:49;28.55;;;19.13;;
61903;SDS011;47857;52.270;6.804;2023-03-09T06:45:14;26.98;;;18.50;;
61903;SDS011;47857;52.270;6.804;2023-03-09T06:47:40;27.95;;;18.40;;
61903;SDS011;47857;52.270;6.804;2023-03-09T06:50:08;26.95;;;18.23;;
61903;SDS011;47857;52.270;6.804;2023-03-09T06:52:36;26.90;;;18.50;;
61903;SDS011;47857;52.270;6.804;2023-03-09T06:55:04;27.63;;;18.92;;
61903;SDS011;47857;52.270;6.804;2023-03-09T06:57:30;26.45;;;17.92;;
61903;SDS011;47857;52.270;6.804;2023-03-09T06:59:55;25.13;;;16.85;;
61903;SDS011;47857;52.270;6.804;2023-03-09T07:02:21;27.65;;;18.50;;
61903;SDS011;47857;52.270;6.804;2023-03-09T07:04:47;25.25;;;17.65;;
61903;SDS011;47857;52.270;6.804;2023-03-09T07:07:12;25.13;;;17.35;;
61903;SDS011;47857;52.270;6.804;2023-03-09T07:09:38;24.23;;;16.90;;
61903;SDS011;47857;52.270;6.804;2023-03-09T07:12:04;25.40;;;17.17;;
61903;SDS011;47857;52.270;6.804;2023-03-09T07:14:29;24.90;;;17.27;;
61903;SDS011;47857;52.270;6.804;2023-03-09T07:16:55;25.10;;;16.83;;
61903;SDS011;47857;52.270;6.804;2023-03-09T07:19:21;24.95;;;17.27;;
61903;SDS011;47857;52.270;6.804;2023-03-09T07:21:48;24.63;;;16.80;;
61903;SDS011;47857;52.270;6.804;2023-03-09T07:24:14;25.35;;;17.27;;
61903;SDS011;47857;52.270;6.804;2023-03-09T07:26:40;24.48;;;17.15;;
61903;SDS011;47857;52.270;6.804;2023-03-09T07:29:05;26.80;;;17.52;;
61903;SDS011;47857;52.270;6.804;2023-03-09T07:31:31;23.80;;;16.50;;
61903;SDS011;47857;52.270;6.804;2023-03-09T07:33:57;23.77;;;16.65;;
61903;SDS011;47857;52.270;6.804;2023-03-09T07:36:23;24.67;;;16.80;;
61903;SDS011;47857;52.270;6.804;2023-03-09T07:38:49;28.83;;;17.77;;
61903;SDS011;47857;52.270;6.804;2023-03-09T07:41:15;24.73;;;16.95;;
61903;SDS011;47857;52.270;6.804;2023-03-09T07:43:41;26.33;;;18.02;;
61903;SDS011;47857;52.270;6.804;2023-03-09T07:46:17;24.52;;;17.15;;
61903;SDS011;47857;52.270;6.804;2023-03-09T07:48:43;24.00;;;16.08;;
61903;SDS011;47857;52.270;6.804;2023-03-09T07:51:10;25.75;;;17.08;;
61903;SDS011;47857;52.270;6.804;2023-03-09T07:53:36;23.75;;;16.73;;
61903;SDS011;47857;52.270;6.804;2023-03-09T07:56:04;23.83;;;17.40;;
61903;SDS011;47857;52.270;6.804;2023-03-09T07:58:31;22.52;;;16.00;;
61903;SDS011;47857;52.270;6.804;2023-03-09T08:00:57;25.05;;;16.67;;
61903;SDS011;47857;52.270;6.804;2023-03-09T08:03:23;22.23;;;16.42;;
61903;SDS011;47857;52.270;6.804;2023-03-09T08:05:49;24.52;;;16.55;;
61903;SDS011;47857;52.270;6.804;2023-03-09T08:08:21;31.50;;;19.25;;
61903;SDS011;47857;52.270;6.804;2023-03-09T08:10:47;23.73;;;16.83;;
61903;SDS011;47857;52.270;6.804;2023-03-09T08:13:13;24.33;;;16.80;;
61903;SDS011;47857;52.270;6.804;2023-03-09T08:15:39;23.85;;;16.55;;
61903;SDS011;47857;52.270;6.804;2023-03-09T08:18:05;23.60;;;16.17;;
61903;SDS011;47857;52.270;6.804;2023-03-09T08:20:31;23.90;;;16.38;;
61903;SDS011;47857;52.270;6.804;2023-03-09T08:22:57;23.45;;;16.25;;
61903;SDS011;47857;52.270;6.804;2023-03-09T08:25:22;22.50;;;15.75;;
61903;SDS011;47857;52.270;6.804;2023-03-09T08:27:47;22.33;;;16.00;;
61903;SDS011;47857;52.270;6.804;2023-03-09T08:30:14;20.92;;;15.05;;
61903;SDS011;47857;52.270;6.804;2023-03-09T08:32:41;21.52;;;15.63;;
61903;SDS011;47857;52.270;6.804;2023-03-09T08:35:08;22.50;;;16.27;;
61903;SDS011;47857;52.270;6.804;2023-03-09T08:37:34;23.80;;;16.52;;
61903;SDS011;47857;52.270;6.804;2023-03-09T08:39:59;22.08;;;15.88;;
61903;SDS011;47857;52.270;6.804;2023-03-09T08:42:25;22.20;;;16.13;;
61903;SDS011;47857;52.270;6.804;2023-03-09T08:44:51;22.75;;;15.55;;
61903;SDS011;47857;52.270;6.804;2023-03-09T08:47:16;23.85;;;16.90;;
61903;SDS011;47857;52.270;6.804;2023-03-09T08:49:42;25.75;;;16.45;;
61903;SDS011;47857;52.270;6.804;2023-03-09T08:52:08;22.35;;;15.90;;
61903;SDS011;47857;52.270;6.804;2023-03-09T08:54:33;22.75;;;16.25;;
61903;SDS011;47857;52.270;6.804;2023-03-09T08:56:59;22.23;;;16.23;;
61903;SDS011;47857;52.270;6.804;2023-03-09T08:59:24;21.85;;;15.05;;
61903;SDS011;47857;52.270;6.804;2023-03-09T09:01:50;21.45;;;15.15;;
61903;SDS011;47857;52.270;6.804;2023-03-09T09:04:15;21.10;;;15.70;;
61903;SDS011;47857;52.270;6.804;2023-03-09T09:06:41;21.77;;;15.70;;
61903;SDS011;47857;52.270;6.804;2023-03-09T09:09:06;21.92;;;15.90;;
61903;SDS011;47857;52.270;6.804;2023-03-09T09:11:33;24.15;;;16.30;;
61903;SDS011;47857;52.270;6.804;2023-03-09T09:13:58;23.67;;;16.63;;
61903;SDS011;47857;52.270;6.804;2023-03-09T09:16:27;22.00;;;15.63;;
61903;SDS011;47857;52.270;6.804;2023-03-09T09:18:54;22.40;;;15.20;;
61903;SDS011;47857;52.270;6.804;2023-03-09T09:21:20;21.52;;;15.55;;
61903;SDS011;47857;52.270;6.804;2023-03-09T09:23:46;21.92;;;15.77;;
61903;SDS011;47857;52.270;6.804;2023-03-09T09:26:12;22.30;;;15.57;;
61903;SDS011;47857;52.270;6.804;2023-03-09T09:28:38;23.45;;;16.30;;
61903;SDS011;47857;52.270;6.804;2023-03-09T09:31:05;21.67;;;15.88;;
61903;SDS011;47857;52.270;6.804;2023-03-09T09:33:34;22.70;;;15.60;;
61903;SDS011;47857;52.270;6.804;2023-03-09T09:36:00;21.33;;;15.23;;
61903;SDS011;47857;52.270;6.804;2023-03-09T09:38:36;22.67;;;15.07;;
61903;SDS011;47857;52.270;6.804;2023-03-09T09:41:04;22.05;;;15.27;;
61903;SDS011;47857;52.270;6.804;2023-03-09T09:43:32;22.90;;;15.57;;
61903;SDS011;47857;52.270;6.804;2023-03-09T09:45:59;23.48;;;16.48;;
61903;SDS011;47857;52.270;6.804;2023-03-09T09:48:27;23.35;;;16.10;;
61903;SDS011;47857;52.270;6.804;2023-03-09T09:59:06;25.85;;;16.08;;
61903;SDS011;47857;52.270;6.804;2023-03-09T10:04:14;20.10;;;14.40;;
61903;SDS011;47857;52.270;6.804;2023-03-09T10:06:45;21.42;;;14.93;;
61903;SDS011;47857;52.270;6.804;2023-03-09T10:09:14;21.70;;;14.82;;
61903;SDS011;47857;52.270;6.804;2023-03-09T10:11:49;20.95;;;14.65;;
61903;SDS011;47857;52.270;6.804;2023-03-09T10:16:50;22.75;;;15.00;;
61903;SDS011;47857;52.270;6.804;2023-03-09T10:19:26;21.58;;;14.98;;
61903;SDS011;47857;52.270;6.804;2023-03-09T10:30:05;20.88;;;15.07;;
61903;SDS011;47857;52.270;6.804;2023-03-09T10:35:11;23.25;;;16.05;;
61903;SDS011;47857;52.270;6.804;2023-03-09T10:37:43;23.45;;;16.20;;
61903;SDS011;47857;52.270;6.804;2023-03-09T10:40:14;21.63;;;15.32;;
61903;SDS011;47857;52.270;6.804;2023-03-09T10:42:43;21.23;;;15.52;;
61903;SDS011;47857;52.270;6.804;2023-03-09T10:50:14;23.55;;;15.80;;
61903;SDS011;47857;52.270;6.804;2023-03-09T10:52:40;21.48;;;15.30;;
61903;SDS011;47857;52.270;6.804;2023-03-09T10:55:41;21.65;;;15.43;;
61903;SDS011;47857;52.270;6.804;2023-03-09T10:58:23;23.67;;;15.77;;
61903;SDS011;47857;52.270;6.804;2023-03-09T11:03:22;21.83;;;15.20;;
61903;SDS011;47857;52.270;6.804;2023-03-09T11:05:48;20.95;;;15.38;;
61903;SDS011;47857;52.270;6.804;2023-03-09T11:08:21;23.15;;;16.05;;
61903;SDS011;47857;52.270;6.804;2023-03-09T11:10:59;24.10;;;16.10;;
61903;SDS011;47857;52.270;6.804;2023-03-09T11:13:26;23.65;;;16.20;;
61903;SDS011;47857;52.270;6.804;2023-03-09T11:16:02;25.73;;;17.17;;
61903;SDS011;47857;52.270;6.804;2023-03-09T11:18:38;20.83;;;15.02;;
61903;SDS011;47857;52.270;6.804;2023-03-09T11:21:04;21.35;;;15.43;;
61903;SDS011;47857;52.270;6.804;2023-03-09T11:23:31;22.80;;;16.30;;
61903;SDS011;47857;52.270;6.804;2023-03-09T11:31:21;23.13;;;16.65;;
61903;SDS011;47857;52.270;6.804;2023-03-09T11:33:49;24.75;;;16.98;;
61903;SDS011;47857;52.270;6.804;2023-03-09T11:36:17;21.52;;;15.68;;
61903;SDS011;47857;52.270;6.804;2023-03-09T11:38:45;20.38;;;15.05;;
61903;SDS011;47857;52.270;6.804;2023-03-09T11:41:32;22.90;;;16.20;;
61903;SDS011;47857;52.270;6.804;2023-03-09T11:44:34;34.75;;;19.83;;
61903;SDS011;47857;52.270;6.804;2023-03-09T11:47:02;28.85;;;18.23;;
61903;SDS011;47857;52.270;6.804;2023-03-09T11:49:29;26.10;;;16.75;;
61903;SDS011;47857;52.270;6.804;2023-03-09T11:51:57;26.45;;;17.20;;
61903;SDS011;47857;52.270;6.804;2023-03-09T11:54:31;22.15;;;15.40;;
61903;SDS011;47857;52.270;6.804;2023-03-09T11:56:59;22.38;;;15.50;;
61903;SDS011;47857;52.270;6.804;2023-03-09T11:59:35;21.90;;;15.85;;
61903;SDS011;47857;52.270;6.804;2023-03-09T12:10:22;24.98;;;17.75;;
61903;SDS011;47857;52.270;6.804;2023-03-09T12:15:24;24.05;;;17.75;;
61903;SDS011;47857;52.270;6.804;2023-03-09T12:17:56;23.90;;;17.77;;
61903;SDS011;47857;52.270;6.804;2023-03-09T12:22:56;23.77;;;16.83;;
61903;SDS011;47857;52.270;6.804;2023-03-09T12:25:22;23.80;;;16.65;;
61903;SDS011;47857;52.270;6.804;2023-03-09T12:27:49;24.65;;;17.42;;
61903;SDS011;47857;52.270;6.804;2023-03-09T12:30:21;22.02;;;15.90;;
61903;SDS011;47857;52.270;6.804;2023-03-09T12:32:55;23.92;;;16.48;;
61903;SDS011;47857;52.270;6.804;2023-03-09T12:45:40;24.27;;;16.52;;
61903;SDS011;47857;52.270;6.804;2023-03-09T12:53:06;24.77;;;17.45;;
61903;SDS011;47857;52.270;6.804;2023-03-09T13:03:22;23.92;;;17.40;;
61903;SDS011;47857;52.270;6.804;2023-03-09T13:05:49;25.38;;;17.63;;
61903;SDS011;47857;52.270;6.804;2023-03-09T13:08:35;23.50;;;16.30;;
61903;SDS011;47857;52.270;6.804;2023-03-09T13:13:46;25.23;;;17.85;;
61903;SDS011;47857;52.270;6.804;2023-03-09T13:19:48;25.77;;;17.63;;
61903;SDS011;47857;52.270;6.804;2023-03-09T13:21:45;25.75;;;17.92;;
61903;SDS011;47857;52.270;6.804;2023-03-09T13:32:28;24.13;;;17.05;;
61903;SDS011;47857;52.270;6.804;2023-03-09T13:34:56;23.70;;;16.90;;
61903;SDS011;47857;52.270;6.804;2023-03-09T13:37:24;23.95;;;16.45;;
61903;SDS011;47857;52.270;6.804;2023-03-09T13:40:02;23.52;;;17.08;;
61903;SDS011;47857;52.270;6.804;2023-03-09T13:42:29;22.83;;;15.85;;
61903;SDS011;47857;52.270;6.804;2023-03-09T13:44:56;25.48;;;16.95;;
61903;SDS011;47857;52.270;6.804;2023-03-09T13:47:23;23.08;;;16.67;;
61903;SDS011;47857;52.270;6.804;2023-03-09T13:49:50;24.83;;;16.77;;
61903;SDS011;47857;52.270;6.804;2023-03-09T13:52:18;24.20;;;16.67;;
61903;SDS011;47857;52.270;6.804;2023-03-09T13:54:54;24.10;;;16.63;;
61903;SDS011;47857;52.270;6.804;2023-03-09T13:57:22;23.92;;;16.83;;
61903;SDS011;47857;52.270;6.804;2023-03-09T14:00:03;25.95;;;17.80;;
61903;SDS011;47857;52.270;6.804;2023-03-09T14:02:43;24.23;;;16.98;;
61903;SDS011;47857;52.270;6.804;2023-03-09T14:07:50;24.50;;;17.48;;
61903;SDS011;47857;52.270;6.804;2023-03-09T14:10:36;23.60;;;17.05;;
61903;SDS011;47857;52.270;6.804;2023-03-09T14:13:06;26.80;;;18.20;;
61903;SDS011;47857;52.270;6.804;2023-03-09T14:15:38;25.65;;;17.10;;
61903;SDS011;47857;52.270;6.804;2023-03-09T14:18:04;27.02;;;18.60;;
61903;SDS011;47857;52.270;6.804;2023-03-09T14:26:04;26.88;;;18.42;;
61903;SDS011;47857;52.270;6.804;2023-03-09T14:28:32;29.90;;;18.63;;
61903;SDS011;47857;52.270;6.804;2023-03-09T14:31:18;27.85;;;18.25;;
61903;SDS011;47857;52.270;6.804;2023-03-09T14:34:02;29.58;;;18.85;;
61903;SDS011;47857;52.270;6.804;2023-03-09T14:36:36;29.17;;;19.42;;
61903;SDS011;47857;52.270;6.804;2023-03-09T14:39:04;28.30;;;19.20;;
61903;SDS011;47857;52.270;6.804;2023-03-09T14:41:36;30.65;;;19.55;;
61903;SDS011;47857;52.270;6.804;2023-03-09T14:44:03;31.08;;;19.70;;
61903;SDS011;47857;52.270;6.804;2023-03-09T14:46:29;33.50;;;20.13;;
61903;SDS011;47857;52.270;6.804;2023-03-09T14:48:56;31.02;;;19.73;;
61903;SDS011;47857;52.270;6.804;2023-03-09T14:51:26;29.83;;;19.05;;
61903;SDS011;47857;52.270;6.804;2023-03-09T14:53:56;32.60;;;20.80;;
61903;SDS011;47857;52.270;6.804;2023-03-09T14:56:23;30.48;;;19.67;;
61903;SDS011;47857;52.270;6.804;2023-03-09T14:58:49;29.20;;;19.17;;
61903;SDS011;47857;52.270;6.804;2023-03-09T15:01:15;29.40;;;19.50;;
61903;SDS011;47857;52.270;6.804;2023-03-09T15:03:42;31.10;;;19.85;;
61903;SDS011;47857;52.270;6.804;2023-03-09T15:06:08;32.33;;;20.85;;
61903;SDS011;47857;52.270;6.804;2023-03-09T15:08:33;31.70;;;20.38;;
61903;SDS011;47857;52.270;6.804;2023-03-09T15:10:59;35.35;;;20.88;;
61903;SDS011;47857;52.270;6.804;2023-03-09T15:13:25;34.05;;;20.95;;
61903;SDS011;47857;52.270;6.804;2023-03-09T15:15:50;35.15;;;21.73;;
61903;SDS011;47857;52.270;6.804;2023-03-09T15:18:16;33.17;;;20.27;;
61903;SDS011;47857;52.270;6.804;2023-03-09T15:20:41;34.83;;;20.85;;
61903;SDS011;47857;52.270;6.804;2023-03-09T15:23:07;35.10;;;21.17;;
61903;SDS011;47857;52.270;6.804;2023-03-09T15:25:32;31.63;;;20.10;;
61903;SDS011;47857;52.270;6.804;2023-03-09T15:27:58;31.35;;;20.33;;
61903;SDS011;47857;52.270;6.804;2023-03-09T15:30:23;34.35;;;20.90;;
61903;SDS011;47857;52.270;6.804;2023-03-09T15:32:49;32.58;;;20.45;;
61903;SDS011;47857;52.270;6.804;2023-03-09T15:35:18;36.97;;;21.67;;
61903;SDS011;47857;52.270;6.804;2023-03-09T15:37:44;35.60;;;21.48;;
61903;SDS011;47857;52.270;6.804;2023-03-09T15:40:11;35.33;;;22.83;;
61903;SDS011;47857;52.270;6.804;2023-03-09T15:42:38;34.45;;;21.95;;
61903;SDS011;47857;52.270;6.804;2023-03-09T15:45:04;34.00;;;21.58;;
61903;SDS011;47857;52.270;6.804;2023-03-09T15:47:31;34.97;;;20.98;;
61903;SDS011;47857;52.270;6.804;2023-03-09T15:49:56;35.63;;;22.10;;
61903;SDS011;47857;52.270;6.804;2023-03-09T15:52:22;37.30;;;23.52;;
61903;SDS011;47857;52.270;6.804;2023-03-09T15:54:47;37.55;;;22.23;;
61903;SDS011;47857;52.270;6.804;2023-03-09T15:57:13;35.25;;;22.70;;
61903;SDS011;47857;52.270;6.804;2023-03-09T15:59:38;34.58;;;22.42;;
61903;SDS011;47857;52.270;6.804;2023-03-09T16:02:04;35.70;;;23.00;;
61903;SDS011;47857;52.270;6.804;2023-03-09T16:04:29;35.97;;;22.02;;